Ottumwa Regional Airport
KOTM : now visible

Airfield :











YOU CAN JOIN US ON...

 
LOGIN :

Register | Disclaimer

   EN    FR    IT 

 









Legend :    VFR   Marginal VFR   IFR   Intensive IFR   Very Intensive IFR
Visi :
Ceiling :
>= 8 km
>= 3000ft
5 to 8 km
1000 to 3000 ft
1500m to 5 km
500 to 1000 ft
800 to 1500m
200 to 500 ft
< 800m
< 200 ft
Symbols :   Thunderstorms  Fog  Heavy snow  Heavy precipitations  Wind > 20 kt







- Airport Elevation : 845 ft
- IATA code : OTM


KOTM - Ottumwa Regional

CURRENT METAR :
  • 191553Z AUTO 02021G32KT 10SM CLR 12/M02 A3001 RMK AO2 PK WND 36032/1551 SLP163 T01221022

EXPIRED METARs :
  • 191453Z AUTO 03016G25KT 10SM CLR 11/00 A3000 RMK AO2 SLP161 T01060000 51015
  • 191353Z AUTO 01015KT 10SM CLR 08/02 A3000 RMK AO2 PK WND 02026/1322 SLP162 T00830017

TAF KOTM
Valid from the 19 at 12:00 until the 20 at 12:00 UTC


191120Z 1912/2012 35011KT P6SM SKC
FM191400 36012G20KT P6SM SKC
FM192300 35008KT P6SM SKC
FM200200 VRB05KT P6SM SKC
KZAU FIR / North America



MET'MAP, your aeronautical weather chart ! - Copyright ORBIFLY December 2007 - Disclaimer

ORBIFLY MET'MAP TEAM :

Programming & Development : Alexandra Zaïnal
Concept & Development : Baudouin d'Aumeries
Co-Development & Prog : Marc-Olivier Méhu
Technical & hardware support : Manuel Goepfert

Contact : metmap@orbifly.com




SOURCES & CREDITS :

   NOAA       Earth
Advisory